Terminal Aerodrome Forecast
Issued by NWS

Home | Current Version | Previous Version | Text Only | Print | Product List | Glossary On
Versions: 1 2 3 4 5 6 7 8 9 10 11 12 13 14 15
740
FTUS42 KMLB 231519 AAA
TAFTIX
TAF AMD
KTIX 231519Z 2315/2412 20010KT P6SM SCT022 BKN100
      TEMPO 2315/2317 BKN022
     FM231900 16011KT P6SM VCTS SCT030CB BKN060
      TEMPO 2319/2323 2SM TSRA BKN025CB
     FM240000 18006KT P6SM VCSH SCT025 BKN035 OVC060
     FM241000 24004KT P6SM BKN008=

USA.gov is the U.S. government's official web portal to all federal, state and local government web resources and services.